sensor_id;sensor_type;location;lat;lon;timestamp;temperature;humidity
5222;DHT22;2630;52.036;8.514;2022-09-29T00:00:52;8.80;99.90
5222;DHT22;2630;52.036;8.514;2022-09-29T00:08:15;8.70;99.90
5222;DHT22;2630;52.036;8.514;2022-09-29T00:10:41;8.70;99.90
5222;DHT22;2630;52.036;8.514;2022-09-29T00:13:07;8.60;99.90
5222;DHT22;2630;52.036;8.514;2022-09-29T00:15:32;8.70;99.90
5222;DHT22;2630;52.036;8.514;2022-09-29T00:17:58;8.70;99.90
5222;DHT22;2630;52.036;8.514;2022-09-29T00:20:24;8.80;99.90
5222;DHT22;2630;52.036;8.514;2022-09-29T00:22:50;8.80;99.90
5222;DHT22;2630;52.036;8.514;2022-09-29T00:25:17;8.80;99.90
5222;DHT22;2630;52.036;8.514;2022-09-29T00:27:43;8.80;99.90
5222;DHT22;2630;52.036;8.514;2022-09-29T00:37:26;8.90;99.90
5222;DHT22;2630;52.036;8.514;2022-09-29T00:45:11;8.80;99.90
5222;DHT22;2630;52.036;8.514;2022-09-29T00:47:40;8.80;99.90
5222;DHT22;2630;52.036;8.514;2022-09-29T00:50:31;8.70;99.90
5222;DHT22;2630;52.036;8.514;2022-09-29T00:53:01;8.70;99.90
5222;DHT22;2630;52.036;8.514;2022-09-29T00:55:35;8.70;99.90
5222;DHT22;2630;52.036;8.514;2022-09-29T00:58:06;8.70;99.90
5222;DHT22;2630;52.036;8.514;2022-09-29T01:00:33;8.70;99.90
5222;DHT22;2630;52.036;8.514;2022-09-29T01:03:04;8.70;99.90
5222;DHT22;2630;52.036;8.514;2022-09-29T01:05:36;8.60;99.90
5222;DHT22;2630;52.036;8.514;2022-09-29T01:08:13;8.40;99.90
5222;DHT22;2630;52.036;8.514;2022-09-29T01:10:40;8.60;99.90
5222;DHT22;2630;52.036;8.514;2022-09-29T01:13:07;8.50;99.90
5222;DHT22;2630;52.036;8.514;2022-09-29T01:15:33;8.40;99.90
5222;DHT22;2630;52.036;8.514;2022-09-29T01:18:00;8.40;99.90
5222;DHT22;2630;52.036;8.514;2022-09-29T01:20:32;8.30;99.90
5222;DHT22;2630;52.036;8.514;2022-09-29T01:31:55;8.20;99.90
5222;DHT22;2630;52.036;8.514;2022-09-29T01:42:19;8.20;99.90
5222;DHT22;2630;52.036;8.514;2022-09-29T01:45:01;8.20;99.90
5222;DHT22;2630;52.036;8.514;2022-09-29T01:47:36;8.10;99.90
5222;DHT22;2630;52.036;8.514;2022-09-29T01:50:06;8.10;99.90
5222;DHT22;2630;52.036;8.514;2022-09-29T01:52:41;8.10;99.90
5222;DHT22;2630;52.036;8.514;2022-09-29T01:55:11;8.00;99.90
5222;DHT22;2630;52.036;8.514;2022-09-29T01:57:59;8.00;99.90
5222;DHT22;2630;52.036;8.514;2022-09-29T02:00:28;7.90;99.90
5222;DHT22;2630;52.036;8.514;2022-09-29T02:10:34;7.70;99.90
5222;DHT22;2630;52.036;8.514;2022-09-29T02:18:00;7.60;99.90
5222;DHT22;2630;52.036;8.514;2022-09-29T02:22:54;7.40;99.90
5222;DHT22;2630;52.036;8.514;2022-09-29T02:25:20;7.30;99.90
5222;DHT22;2630;52.036;8.514;2022-09-29T02:27:47;7.20;99.90
5222;DHT22;2630;52.036;8.514;2022-09-29T02:30:14;7.20;99.90
5222;DHT22;2630;52.036;8.514;2022-09-29T02:32:40;7.10;99.90
5222;DHT22;2630;52.036;8.514;2022-09-29T02:35:08;7.20;99.90
5222;DHT22;2630;52.036;8.514;2022-09-29T02:43:12;7.30;99.90
5222;DHT22;2630;52.036;8.514;2022-09-29T02:54:59;7.30;99.90
5222;DHT22;2630;52.036;8.514;2022-09-29T02:57:27;7.30;99.90
5222;DHT22;2630;52.036;8.514;2022-09-29T03:02:32;7.20;99.90
5222;DHT22;2630;52.036;8.514;2022-09-29T03:04:58;7.30;99.90
5222;DHT22;2630;52.036;8.514;2022-09-29T03:07:24;7.40;99.90
5222;DHT22;2630;52.036;8.514;2022-09-29T03:09:49;7.50;99.90
5222;DHT22;2630;52.036;8.514;2022-09-29T03:12:15;7.50;99.90
5222;DHT22;2630;52.036;8.514;2022-09-29T03:14:42;7.60;99.90
5222;DHT22;2630;52.036;8.514;2022-09-29T03:17:08;7.60;99.90
5222;DHT22;2630;52.036;8.514;2022-09-29T03:19:34;7.70;99.90
5222;DHT22;2630;52.036;8.514;2022-09-29T03:21:59;7.80;99.90
5222;DHT22;2630;52.036;8.514;2022-09-29T03:26:51;7.80;99.90
5222;DHT22;2630;52.036;8.514;2022-09-29T03:29:16;7.80;99.90
5222;DHT22;2630;52.036;8.514;2022-09-29T03:31:42;7.80;99.90
5222;DHT22;2630;52.036;8.514;2022-09-29T03:39:00;7.90;99.90
5222;DHT22;2630;52.036;8.514;2022-09-29T03:43:51;7.90;99.90
5222;DHT22;2630;52.036;8.514;2022-09-29T03:46:17;7.90;99.90
5222;DHT22;2630;52.036;8.514;2022-09-29T03:48:43;7.80;99.90
5222;DHT22;2630;52.036;8.514;2022-09-29T03:53:35;7.90;99.90
5222;DHT22;2630;52.036;8.514;2022-09-29T03:56:01;7.90;99.90
5222;DHT22;2630;52.036;8.514;2022-09-29T03:58:27;8.00;99.90
5222;DHT22;2630;52.036;8.514;2022-09-29T04:03:19;8.10;99.90
5222;DHT22;2630;52.036;8.514;2022-09-29T04:05:46;8.10;99.90
5222;DHT22;2630;52.036;8.514;2022-09-29T04:10:38;8.10;99.90
5222;DHT22;2630;52.036;8.514;2022-09-29T04:13:05;8.10;99.90
5222;DHT22;2630;52.036;8.514;2022-09-29T04:15:31;8.10;99.90
5222;DHT22;2630;52.036;8.514;2022-09-29T04:17:57;8.00;99.90
5222;DHT22;2630;52.036;8.514;2022-09-29T04:20:23;8.00;99.90
5222;DHT22;2630;52.036;8.514;2022-09-29T04:22:49;8.00;99.90
5222;DHT22;2630;52.036;8.514;2022-09-29T04:25:14;7.90;99.90
5222;DHT22;2630;52.036;8.514;2022-09-29T04:27:40;7.90;99.90
5222;DHT22;2630;52.036;8.514;2022-09-29T04:30:06;7.90;99.90
5222;DHT22;2630;52.036;8.514;2022-09-29T04:32:32;8.00;99.90
5222;DHT22;2630;52.036;8.514;2022-09-29T04:34:58;7.90;99.90
5222;DHT22;2630;52.036;8.514;2022-09-29T04:37:23;7.90;99.90
5222;DHT22;2630;52.036;8.514;2022-09-29T04:39:49;7.90;99.90
5222;DHT22;2630;52.036;8.514;2022-09-29T04:42:17;7.90;99.90
5222;DHT22;2630;52.036;8.514;2022-09-29T04:44:42;8.00;99.90
5222;DHT22;2630;52.036;8.514;2022-09-29T04:47:08;8.10;99.90
5222;DHT22;2630;52.036;8.514;2022-09-29T04:49:33;8.10;99.90
5222;DHT22;2630;52.036;8.514;2022-09-29T04:51:59;8.00;99.90
5222;DHT22;2630;52.036;8.514;2022-09-29T04:54:28;8.00;99.90
5222;DHT22;2630;52.036;8.514;2022-09-29T04:59:20;7.90;99.90
5222;DHT22;2630;52.036;8.514;2022-09-29T05:01:47;7.90;99.90
5222;DHT22;2630;52.036;8.514;2022-09-29T05:04:12;7.90;99.90
5222;DHT22;2630;52.036;8.514;2022-09-29T05:06:38;7.90;99.90
5222;DHT22;2630;52.036;8.514;2022-09-29T05:09:07;7.80;99.90
5222;DHT22;2630;52.036;8.514;2022-09-29T05:11:33;7.70;99.90
5222;DHT22;2630;52.036;8.514;2022-09-29T05:13:59;7.70;99.90
5222;DHT22;2630;52.036;8.514;2022-09-29T05:16:25;7.70;99.90
5222;DHT22;2630;52.036;8.514;2022-09-29T05:18:50;7.70;99.90
5222;DHT22;2630;52.036;8.514;2022-09-29T05:21:16;7.80;99.90
5222;DHT22;2630;52.036;8.514;2022-09-29T05:26:09;7.60;99.90
5222;DHT22;2630;52.036;8.514;2022-09-29T05:28:36;7.60;99.90
5222;DHT22;2630;52.036;8.514;2022-09-29T05:31:07;7.60;99.90
5222;DHT22;2630;52.036;8.514;2022-09-29T05:33:33;7.50;99.90
5222;DHT22;2630;52.036;8.514;2022-09-29T05:35:59;7.40;99.90
5222;DHT22;2630;52.036;8.514;2022-09-29T05:38:25;7.40;99.90
5222;DHT22;2630;52.036;8.514;2022-09-29T05:40:52;7.40;99.90
5222;DHT22;2630;52.036;8.514;2022-09-29T05:43:18;7.30;99.90
5222;DHT22;2630;52.036;8.514;2022-09-29T05:45:44;7.40;99.90
5222;DHT22;2630;52.036;8.514;2022-09-29T05:50:36;7.40;99.90
5222;DHT22;2630;52.036;8.514;2022-09-29T05:53:06;7.40;99.90
5222;DHT22;2630;52.036;8.514;2022-09-29T05:55:33;7.40;99.90
5222;DHT22;2630;52.036;8.514;2022-09-29T05:57:58;7.50;99.90
5222;DHT22;2630;52.036;8.514;2022-09-29T06:00:24;7.50;99.90
5222;DHT22;2630;52.036;8.514;2022-09-29T06:02:49;7.60;99.90
5222;DHT22;2630;52.036;8.514;2022-09-29T06:05:15;7.40;99.90
5222;DHT22;2630;52.036;8.514;2022-09-29T06:07:41;7.80;99.90
5222;DHT22;2630;52.036;8.514;2022-09-29T06:10:06;7.80;99.90
5222;DHT22;2630;52.036;8.514;2022-09-29T06:12:34;7.90;99.90
5222;DHT22;2630;52.036;8.514;2022-09-29T06:15:01;7.90;99.90
5222;DHT22;2630;52.036;8.514;2022-09-29T06:17:26;8.00;99.90
5222;DHT22;2630;52.036;8.514;2022-09-29T06:19:52;8.10;99.90
5222;DHT22;2630;52.036;8.514;2022-09-29T06:24:44;8.30;99.90
5222;DHT22;2630;52.036;8.514;2022-09-29T06:27:09;8.30;99.90
5222;DHT22;2630;52.036;8.514;2022-09-29T06:29:35;8.40;99.90
5222;DHT22;2630;52.036;8.514;2022-09-29T06:34:27;8.50;99.90
5222;DHT22;2630;52.036;8.514;2022-09-29T06:39:37;8.70;99.90
5222;DHT22;2630;52.036;8.514;2022-09-29T06:42:03;8.80;99.90
5222;DHT22;2630;52.036;8.514;2022-09-29T06:44:29;9.00;99.90
5222;DHT22;2630;52.036;8.514;2022-09-29T06:46:56;9.10;99.90
5222;DHT22;2630;52.036;8.514;2022-09-29T06:51:48;9.60;99.90
5222;DHT22;2630;52.036;8.514;2022-09-29T06:54:17;9.70;99.90
5222;DHT22;2630;52.036;8.514;2022-09-29T06:56:49;9.80;99.90
5222;DHT22;2630;52.036;8.514;2022-09-29T06:59:15;9.90;99.90
5222;DHT22;2630;52.036;8.514;2022-09-29T07:01:41;9.90;99.90
5222;DHT22;2630;52.036;8.514;2022-09-29T07:06:33;10.00;99.90
5222;DHT22;2630;52.036;8.514;2022-09-29T07:08:59;10.00;99.90
5222;DHT22;2630;52.036;8.514;2022-09-29T07:13:52;9.80;99.90
5222;DHT22;2630;52.036;8.514;2022-09-29T07:16:18;9.80;99.90
5222;DHT22;2630;52.036;8.514;2022-09-29T07:18:44;9.70;99.90
5222;DHT22;2630;52.036;8.514;2022-09-29T07:21:13;9.60;99.90
5222;DHT22;2630;52.036;8.514;2022-09-29T07:23:43;9.70;99.90
5222;DHT22;2630;52.036;8.514;2022-09-29T07:26:09;9.70;99.90
5222;DHT22;2630;52.036;8.514;2022-09-29T07:28:35;9.70;99.90
5222;DHT22;2630;52.036;8.514;2022-09-29T07:31:03;9.80;99.90
5222;DHT22;2630;52.036;8.514;2022-09-29T07:33:30;9.90;99.90
5222;DHT22;2630;52.036;8.514;2022-09-29T07:35:56;10.00;99.90
5222;DHT22;2630;52.036;8.514;2022-09-29T07:38:25;10.20;99.90
5222;DHT22;2630;52.036;8.514;2022-09-29T07:48:12;10.80;99.90
5222;DHT22;2630;52.036;8.514;2022-09-29T07:53:04;11.10;99.90
5222;DHT22;2630;52.036;8.514;2022-09-29T07:55:29;11.10;99.90
5222;DHT22;2630;52.036;8.514;2022-09-29T07:57:55;11.20;99.90
5222;DHT22;2630;52.036;8.514;2022-09-29T08:00:21;11.20;99.90
5222;DHT22;2630;52.036;8.514;2022-09-29T08:05:12;11.40;99.90
5222;DHT22;2630;52.036;8.514;2022-09-29T08:07:38;11.50;99.90
5222;DHT22;2630;52.036;8.514;2022-09-29T08:10:04;11.60;99.90
5222;DHT22;2630;52.036;8.514;2022-09-29T08:12:30;11.40;99.90
5222;DHT22;2630;52.036;8.514;2022-09-29T08:14:56;11.30;99.90
5222;DHT22;2630;52.036;8.514;2022-09-29T08:17:22;11.20;99.90
5222;DHT22;2630;52.036;8.514;2022-09-29T08:19:47;11.00;99.90
5222;DHT22;2630;52.036;8.514;2022-09-29T08:22:13;11.10;99.90
5222;DHT22;2630;52.036;8.514;2022-09-29T08:27:05;11.20;99.90
5222;DHT22;2630;52.036;8.514;2022-09-29T08:29:31;11.20;99.90
5222;DHT22;2630;52.036;8.514;2022-09-29T08:31:57;11.30;99.90
5222;DHT22;2630;52.036;8.514;2022-09-29T08:34:23;11.60;99.90
5222;DHT22;2630;52.036;8.514;2022-09-29T08:36:48;11.70;99.90
5222;DHT22;2630;52.036;8.514;2022-09-29T08:41:50;11.80;99.90
5222;DHT22;2630;52.036;8.514;2022-09-29T08:44:38;11.80;99.90
5222;DHT22;2630;52.036;8.514;2022-09-29T08:52:23;11.90;99.90
5222;DHT22;2630;52.036;8.514;2022-09-29T08:55:02;11.90;99.90
5222;DHT22;2630;52.036;8.514;2022-09-29T08:57:32;12.10;99.90
5222;DHT22;2630;52.036;8.514;2022-09-29T09:00:01;12.30;99.90
5222;DHT22;2630;52.036;8.514;2022-09-29T09:02:37;12.40;99.90
5222;DHT22;2630;52.036;8.514;2022-09-29T09:05:36;12.70;99.90
5222;DHT22;2630;52.036;8.514;2022-09-29T09:17:08;14.70;99.90
5222;DHT22;2630;52.036;8.514;2022-09-29T09:22:42;14.90;99.90
5222;DHT22;2630;52.036;8.514;2022-09-29T09:25:34;15.00;99.90
5222;DHT22;2630;52.036;8.514;2022-09-29T09:33:05;15.30;99.90
5222;DHT22;2630;52.036;8.514;2022-09-29T09:35:44;15.30;99.90
5222;DHT22;2630;52.036;8.514;2022-09-29T09:38:26;15.30;99.90
5222;DHT22;2630;52.036;8.514;2022-09-29T09:40:56;15.20;99.90
5222;DHT22;2630;52.036;8.514;2022-09-29T09:43:28;15.10;99.90
5222;DHT22;2630;52.036;8.514;2022-09-29T09:46:03;14.70;99.90
5222;DHT22;2630;52.036;8.514;2022-09-29T09:48:41;14.70;99.90
5222;DHT22;2630;52.036;8.514;2022-09-29T09:51:23;15.20;99.90
5222;DHT22;2630;52.036;8.514;2022-09-29T09:53:53;15.40;99.90
5222;DHT22;2630;52.036;8.514;2022-09-29T09:56:43;15.50;99.90
5222;DHT22;2630;52.036;8.514;2022-09-29T10:00:14;15.40;99.90
5222;DHT22;2630;52.036;8.514;2022-09-29T10:02:16;15.30;99.90
5222;DHT22;2630;52.036;8.514;2022-09-29T10:04:43;15.40;99.90
5222;DHT22;2630;52.036;8.514;2022-09-29T10:07:09;16.10;99.90
5222;DHT22;2630;52.036;8.514;2022-09-29T10:09:35;17.40;99.90
5222;DHT22;2630;52.036;8.514;2022-09-29T10:12:01;18.10;99.90
5222;DHT22;2630;52.036;8.514;2022-09-29T10:14:27;18.70;99.90
5222;DHT22;2630;52.036;8.514;2022-09-29T10:16:57;19.20;99.90
5222;DHT22;2630;52.036;8.514;2022-09-29T10:19:56;19.60;99.90
5222;DHT22;2630;52.036;8.514;2022-09-29T10:22:24;19.50;99.90
5222;DHT22;2630;52.036;8.514;2022-09-29T10:25:15;19.40;99.90
5222;DHT22;2630;52.036;8.514;2022-09-29T10:27:42;21.00;99.90
5222;DHT22;2630;52.036;8.514;2022-09-29T10:30:34;23.00;99.90
5222;DHT22;2630;52.036;8.514;2022-09-29T10:33:02;23.80;99.90
5222;DHT22;2630;52.036;8.514;2022-09-29T10:35:38;24.00;99.90
5222;DHT22;2630;52.036;8.514;2022-09-29T10:38:15;25.00;99.90
5222;DHT22;2630;52.036;8.514;2022-09-29T10:43:25;26.20;99.60
5222;DHT22;2630;52.036;8.514;2022-09-29T10:50:51;26.20;94.90
5222;DHT22;2630;52.036;8.514;2022-09-29T10:53:47;25.20;96.10
5222;DHT22;2630;52.036;8.514;2022-09-29T10:56:17;24.20;95.70
5222;DHT22;2630;52.036;8.514;2022-09-29T10:58:52;22.90;97.30
5222;DHT22;2630;52.036;8.514;2022-09-29T11:01:19;21.60;98.30
5222;DHT22;2630;52.036;8.514;2022-09-29T11:03:48;20.60;99.90
5222;DHT22;2630;52.036;8.514;2022-09-29T11:06:15;20.10;99.90
5222;DHT22;2630;52.036;8.514;2022-09-29T11:09:01;19.00;99.90
5222;DHT22;2630;52.036;8.514;2022-09-29T11:11:28;17.90;99.90
5222;DHT22;2630;52.036;8.514;2022-09-29T11:16:30;16.40;99.90
5222;DHT22;2630;52.036;8.514;2022-09-29T11:19:17;16.00;99.90
5222;DHT22;2630;52.036;8.514;2022-09-29T11:22:14;16.00;99.90
5222;DHT22;2630;52.036;8.514;2022-09-29T11:47:21;15.80;99.90
5222;DHT22;2630;52.036;8.514;2022-09-29T12:06:30;16.30;99.90
5222;DHT22;2630;52.036;8.514;2022-09-29T12:12:19;16.00;99.90
5222;DHT22;2630;52.036;8.514;2022-09-29T12:14:56;15.90;99.90
5222;DHT22;2630;52.036;8.514;2022-09-29T12:17:27;15.80;99.90
5222;DHT22;2630;52.036;8.514;2022-09-29T12:20:06;15.80;99.90
5222;DHT22;2630;52.036;8.514;2022-09-29T12:22:38;16.00;99.90
5222;DHT22;2630;52.036;8.514;2022-09-29T12:25:04;16.30;99.90
5222;DHT22;2630;52.036;8.514;2022-09-29T12:27:39;16.70;99.90
5222;DHT22;2630;52.036;8.514;2022-09-29T12:30:24;17.30;99.90
5222;DHT22;2630;52.036;8.514;2022-09-29T12:38:14;17.10;99.90
5222;DHT22;2630;52.036;8.514;2022-09-29T12:41:16;16.90;99.90
5222;DHT22;2630;52.036;8.514;2022-09-29T12:46:34;16.60;99.90
5222;DHT22;2630;52.036;8.514;2022-09-29T12:54:57;16.00;99.90
5222;DHT22;2630;52.036;8.514;2022-09-29T12:57:35;16.00;99.90
5222;DHT22;2630;52.036;8.514;2022-09-29T13:00:13;15.80;99.90
5222;DHT22;2630;52.036;8.514;2022-09-29T13:07:49;15.40;99.90
5222;DHT22;2630;52.036;8.514;2022-09-29T13:18:44;15.00;99.90
5222;DHT22;2630;52.036;8.514;2022-09-29T13:23:51;14.90;99.90
5222;DHT22;2630;52.036;8.514;2022-09-29T13:26:40;14.90;99.90
5222;DHT22;2630;52.036;8.514;2022-09-29T13:31:39;14.90;99.90
5222;DHT22;2630;52.036;8.514;2022-09-29T13:34:08;15.00;99.90
5222;DHT22;2630;52.036;8.514;2022-09-29T13:36:42;15.20;99.90
5222;DHT22;2630;52.036;8.514;2022-09-29T13:39:20;15.40;99.90
5222;DHT22;2630;52.036;8.514;2022-09-29T13:46:42;15.70;99.90
5222;DHT22;2630;52.036;8.514;2022-09-29T13:51:43;15.90;99.90
5222;DHT22;2630;52.036;8.514;2022-09-29T13:54:29;16.00;99.90
5222;DHT22;2630;52.036;8.514;2022-09-29T13:57:06;16.20;99.90
5222;DHT22;2630;52.036;8.514;2022-09-29T14:01:58;16.40;99.90
5222;DHT22;2630;52.036;8.514;2022-09-29T14:07:04;16.80;99.90
5222;DHT22;2630;52.036;8.514;2022-09-29T14:09:34;16.90;99.90
5222;DHT22;2630;52.036;8.514;2022-09-29T14:12:06;16.90;99.90
5222;DHT22;2630;52.036;8.514;2022-09-29T14:14:37;16.90;99.90
5222;DHT22;2630;52.036;8.514;2022-09-29T14:17:15;17.00;99.90
5222;DHT22;2630;52.036;8.514;2022-09-29T14:36:03;19.20;99.90
5222;DHT22;2630;52.036;8.514;2022-09-29T14:38:36;19.40;99.90
5222;DHT22;2630;52.036;8.514;2022-09-29T14:52:32;17.90;99.90
5222;DHT22;2630;52.036;8.514;2022-09-29T14:55:24;17.70;99.90
5222;DHT22;2630;52.036;8.514;2022-09-29T14:58:09;17.40;99.90
5222;DHT22;2630;52.036;8.514;2022-09-29T15:03:25;17.10;99.90
5222;DHT22;2630;52.036;8.514;2022-09-29T15:06:05;17.10;99.90
5222;DHT22;2630;52.036;8.514;2022-09-29T15:08:31;16.90;99.90
5222;DHT22;2630;52.036;8.514;2022-09-29T15:10:58;16.80;99.90
5222;DHT22;2630;52.036;8.514;2022-09-29T15:13:25;16.60;99.90
5222;DHT22;2630;52.036;8.514;2022-09-29T15:18:44;16.20;99.90
5222;DHT22;2630;52.036;8.514;2022-09-29T15:24:16;15.70;99.90
5222;DHT22;2630;52.036;8.514;2022-09-29T15:26:44;15.50;99.90
5222;DHT22;2630;52.036;8.514;2022-09-29T15:31:42;15.30;99.90
5222;DHT22;2630;52.036;8.514;2022-09-29T15:34:14;15.10;99.90
5222;DHT22;2630;52.036;8.514;2022-09-29T15:36:40;15.10;99.90
5222;DHT22;2630;52.036;8.514;2022-09-29T15:39:26;15.00;99.90
5222;DHT22;2630;52.036;8.514;2022-09-29T15:42:12;15.00;99.90
5222;DHT22;2630;52.036;8.514;2022-09-29T15:44:49;14.80;99.90
5222;DHT22;2630;52.036;8.514;2022-09-29T15:47:21;14.80;99.90
5222;DHT22;2630;52.036;8.514;2022-09-29T15:49:51;14.70;99.90
5222;DHT22;2630;52.036;8.514;2022-09-29T15:52:17;14.60;99.90
5222;DHT22;2630;52.036;8.514;2022-09-29T15:54:52;14.60;99.90
5222;DHT22;2630;52.036;8.514;2022-09-29T15:57:40;14.50;99.90
5222;DHT22;2630;52.036;8.514;2022-09-29T16:06:20;14.30;99.90
5222;DHT22;2630;52.036;8.514;2022-09-29T16:08:50;14.30;99.90
5222;DHT22;2630;52.036;8.514;2022-09-29T16:11:22;14.20;99.90
5222;DHT22;2630;52.036;8.514;2022-09-29T16:14:02;14.10;99.90
5222;DHT22;2630;52.036;8.514;2022-09-29T16:16:33;14.00;99.90
5222;DHT22;2630;52.036;8.514;2022-09-29T16:19:05;14.00;99.90
5222;DHT22;2630;52.036;8.514;2022-09-29T16:21:35;13.90;99.90
5222;DHT22;2630;52.036;8.514;2022-09-29T16:24:05;13.80;99.90
5222;DHT22;2630;52.036;8.514;2022-09-29T16:26:38;13.60;99.90
5222;DHT22;2630;52.036;8.514;2022-09-29T16:31:39;13.50;99.90
5222;DHT22;2630;52.036;8.514;2022-09-29T16:39:32;13.20;99.90
5222;DHT22;2630;52.036;8.514;2022-09-29T16:42:03;13.10;99.90
5222;DHT22;2630;52.036;8.514;2022-09-29T16:44:39;13.00;99.90
5222;DHT22;2630;52.036;8.514;2022-09-29T16:49:47;12.70;99.90
5222;DHT22;2630;52.036;8.514;2022-09-29T16:52:31;12.50;99.90
5222;DHT22;2630;52.036;8.514;2022-09-29T16:55:15;12.40;99.90
5222;DHT22;2630;52.036;8.514;2022-09-29T17:02:52;12.00;99.90
5222;DHT22;2630;52.036;8.514;2022-09-29T17:05:20;11.90;99.90
5222;DHT22;2630;52.036;8.514;2022-09-29T17:07:46;11.70;99.90
5222;DHT22;2630;52.036;8.514;2022-09-29T17:10:16;11.60;99.90
5222;DHT22;2630;52.036;8.514;2022-09-29T17:12:42;11.50;99.90
5222;DHT22;2630;52.036;8.514;2022-09-29T17:15:12;11.30;99.90
5222;DHT22;2630;52.036;8.514;2022-09-29T17:17:38;11.20;99.90
5222;DHT22;2630;52.036;8.514;2022-09-29T17:20:11;11.10;99.90
5222;DHT22;2630;52.036;8.514;2022-09-29T17:22:38;11.10;99.90
5222;DHT22;2630;52.036;8.514;2022-09-29T17:25:05;10.90;99.90
5222;DHT22;2630;52.036;8.514;2022-09-29T17:27:31;10.80;99.90
5222;DHT22;2630;52.036;8.514;2022-09-29T17:30:20;10.70;99.90
5222;DHT22;2630;52.036;8.514;2022-09-29T17:32:48;10.60;99.90
5222;DHT22;2630;52.036;8.514;2022-09-29T17:35:15;10.50;99.90
5222;DHT22;2630;52.036;8.514;2022-09-29T17:37:43;10.50;99.90
5222;DHT22;2630;52.036;8.514;2022-09-29T17:42:40;10.30;99.90
5222;DHT22;2630;52.036;8.514;2022-09-29T17:45:06;10.20;99.90
5222;DHT22;2630;52.036;8.514;2022-09-29T17:50:17;10.00;99.90
5222;DHT22;2630;52.036;8.514;2022-09-29T17:52:43;9.90;99.90
5222;DHT22;2630;52.036;8.514;2022-09-29T17:57:37;9.80;99.90
5222;DHT22;2630;52.036;8.514;2022-09-29T18:00:26;9.70;99.90
5222;DHT22;2630;52.036;8.514;2022-09-29T18:05:17;9.50;99.90
5222;DHT22;2630;52.036;8.514;2022-09-29T18:07:50;9.50;99.90
5222;DHT22;2630;52.036;8.514;2022-09-29T18:10:29;9.40;99.90
5222;DHT22;2630;52.036;8.514;2022-09-29T18:17:55;9.20;99.90
5222;DHT22;2630;52.036;8.514;2022-09-29T18:20:21;9.10;99.90
5222;DHT22;2630;52.036;8.514;2022-09-29T18:22:48;9.10;99.90
5222;DHT22;2630;52.036;8.514;2022-09-29T18:25:15;9.10;99.90
5222;DHT22;2630;52.036;8.514;2022-09-29T18:27:42;9.00;99.90
5222;DHT22;2630;52.036;8.514;2022-09-29T18:30:22;8.90;99.90
5222;DHT22;2630;52.036;8.514;2022-09-29T18:32:53;8.80;99.90
5222;DHT22;2630;52.036;8.514;2022-09-29T18:35:33;8.60;99.90
5222;DHT22;2630;52.036;8.514;2022-09-29T18:37:59;8.50;99.90
5222;DHT22;2630;52.036;8.514;2022-09-29T18:40:27;8.40;99.90
5222;DHT22;2630;52.036;8.514;2022-09-29T18:42:53;8.30;99.90
5222;DHT22;2630;52.036;8.514;2022-09-29T18:45:23;8.20;99.90
5222;DHT22;2630;52.036;8.514;2022-09-29T18:47:53;8.20;99.90
5222;DHT22;2630;52.036;8.514;2022-09-29T18:50:22;8.10;99.90
5222;DHT22;2630;52.036;8.514;2022-09-29T18:55:20;8.10;99.90
5222;DHT22;2630;52.036;8.514;2022-09-29T18:57:47;8.20;99.90
5222;DHT22;2630;52.036;8.514;2022-09-29T19:02:41;8.20;99.90
5222;DHT22;2630;52.036;8.514;2022-09-29T19:05:08;8.20;99.90
5222;DHT22;2630;52.036;8.514;2022-09-29T19:07:34;8.30;99.90
5222;DHT22;2630;52.036;8.514;2022-09-29T19:10:00;8.10;99.90
5222;DHT22;2630;52.036;8.514;2022-09-29T19:12:25;8.20;99.90
5222;DHT22;2630;52.036;8.514;2022-09-29T19:14:56;8.10;99.90
5222;DHT22;2630;52.036;8.514;2022-09-29T19:17:25;8.20;99.90
5222;DHT22;2630;52.036;8.514;2022-09-29T19:19:51;8.10;99.90
5222;DHT22;2630;52.036;8.514;2022-09-29T19:22:17;8.10;99.90
5222;DHT22;2630;52.036;8.514;2022-09-29T19:24:44;8.00;99.90
5222;DHT22;2630;52.036;8.514;2022-09-29T19:27:09;7.90;99.90
5222;DHT22;2630;52.036;8.514;2022-09-29T19:29:35;7.80;99.90
5222;DHT22;2630;52.036;8.514;2022-09-29T19:32:00;7.70;99.90
5222;DHT22;2630;52.036;8.514;2022-09-29T19:34:26;7.70;99.90
5222;DHT22;2630;52.036;8.514;2022-09-29T19:36:52;7.70;99.90
5222;DHT22;2630;52.036;8.514;2022-09-29T19:39:18;7.70;99.90
5222;DHT22;2630;52.036;8.514;2022-09-29T19:41:43;7.70;99.90
5222;DHT22;2630;52.036;8.514;2022-09-29T19:49:02;7.70;99.90
5222;DHT22;2630;52.036;8.514;2022-09-29T19:51:27;7.70;99.90
5222;DHT22;2630;52.036;8.514;2022-09-29T19:54:11;7.60;99.90
5222;DHT22;2630;52.036;8.514;2022-09-29T19:59:14;7.60;99.90
5222;DHT22;2630;52.036;8.514;2022-09-29T20:01:41;7.70;99.90
5222;DHT22;2630;52.036;8.514;2022-09-29T20:13:59;7.80;99.90
5222;DHT22;2630;52.036;8.514;2022-09-29T20:16:28;7.70;99.90
5222;DHT22;2630;52.036;8.514;2022-09-29T20:18:54;7.90;99.90
5222;DHT22;2630;52.036;8.514;2022-09-29T20:23:47;7.90;99.90
5222;DHT22;2630;52.036;8.514;2022-09-29T20:26:13;7.90;99.90
5222;DHT22;2630;52.036;8.514;2022-09-29T20:28:40;7.90;99.90
5222;DHT22;2630;52.036;8.514;2022-09-29T20:31:06;7.90;99.90
5222;DHT22;2630;52.036;8.514;2022-09-29T20:33:33;7.90;99.90
5222;DHT22;2630;52.036;8.514;2022-09-29T20:36:00;7.90;99.90
5222;DHT22;2630;52.036;8.514;2022-09-29T20:38:29;7.80;99.90
5222;DHT22;2630;52.036;8.514;2022-09-29T20:40:59;7.70;99.90
5222;DHT22;2630;52.036;8.514;2022-09-29T20:43:25;7.50;99.90
5222;DHT22;2630;52.036;8.514;2022-09-29T20:45:57;7.50;99.90
5222;DHT22;2630;52.036;8.514;2022-09-29T20:48:23;7.50;99.90
5222;DHT22;2630;52.036;8.514;2022-09-29T20:53:15;7.50;99.90
5222;DHT22;2630;52.036;8.514;2022-09-29T21:00:32;7.30;99.90
5222;DHT22;2630;52.036;8.514;2022-09-29T21:05:24;7.30;99.90
5222;DHT22;2630;52.036;8.514;2022-09-29T21:10:16;7.30;99.90
5222;DHT22;2630;52.036;8.514;2022-09-29T21:12:41;7.30;99.90
5222;DHT22;2630;52.036;8.514;2022-09-29T21:15:09;7.30;99.90
5222;DHT22;2630;52.036;8.514;2022-09-29T21:17:34;7.30;99.90
5222;DHT22;2630;52.036;8.514;2022-09-29T21:20:00;7.30;99.90
5222;DHT22;2630;52.036;8.514;2022-09-29T21:22:25;7.30;99.90
5222;DHT22;2630;52.036;8.514;2022-09-29T21:27:17;7.30;99.90
5222;DHT22;2630;52.036;8.514;2022-09-29T21:29:42;7.30;99.90
5222;DHT22;2630;52.036;8.514;2022-09-29T21:32:09;7.30;99.90
5222;DHT22;2630;52.036;8.514;2022-09-29T21:34:35;7.30;99.90
5222;DHT22;2630;52.036;8.514;2022-09-29T21:37:01;7.30;99.90
5222;DHT22;2630;52.036;8.514;2022-09-29T21:39:26;7.30;99.90
5222;DHT22;2630;52.036;8.514;2022-09-29T21:49:13;7.30;99.90
5222;DHT22;2630;52.036;8.514;2022-09-29T21:51:43;7.30;99.90
5222;DHT22;2630;52.036;8.514;2022-09-29T21:54:14;7.30;99.90
5222;DHT22;2630;52.036;8.514;2022-09-29T21:56:41;7.30;99.90
5222;DHT22;2630;52.036;8.514;2022-09-29T21:59:08;7.30;99.90
5222;DHT22;2630;52.036;8.514;2022-09-29T22:01:37;7.30;99.90
5222;DHT22;2630;52.036;8.514;2022-09-29T22:04:03;7.30;99.90
5222;DHT22;2630;52.036;8.514;2022-09-29T22:06:30;7.30;99.90
5222;DHT22;2630;52.036;8.514;2022-09-29T22:08:57;7.30;99.90
5222;DHT22;2630;52.036;8.514;2022-09-29T22:13:57;7.40;99.90
5222;DHT22;2630;52.036;8.514;2022-09-29T22:18:53;7.50;99.90
5222;DHT22;2630;52.036;8.514;2022-09-29T22:21:20;7.50;99.90
5222;DHT22;2630;52.036;8.514;2022-09-29T22:23:47;7.50;99.90
5222;DHT22;2630;52.036;8.514;2022-09-29T22:26:15;7.40;99.90
5222;DHT22;2630;52.036;8.514;2022-09-29T22:28:41;7.50;99.90
5222;DHT22;2630;52.036;8.514;2022-09-29T22:31:10;7.50;99.90
5222;DHT22;2630;52.036;8.514;2022-09-29T22:33:37;7.50;99.90
5222;DHT22;2630;52.036;8.514;2022-09-29T22:36:04;7.50;99.90
5222;DHT22;2630;52.036;8.514;2022-09-29T22:38:30;7.40;99.90